»·PEaware :: N65710 KSMX-KBFL

N65710 :: KSMX-KBFL

FLIGHT INFORMATION

Flight Status: Arrived
Operator: Privately registered:
United States
More flights under this callsign
Pilot: Duc N. (9209)
Aircraft: CESSNA 172 SKYHAWK
(C172)
More flights by this aircraft type
Origin: KSMX Santa Maria Pub/Capt Hancock
United States
Destination: KBFL Meadows
United States
More flights between these airports :: More routes between these airports
Route: DIRECT
File this flight plan on PilotEdge
Remarks:
Altitude:
(Current/Filed)
7,500ft
Speed:
(Current/Filed)
110kts
Departed: 15-Jun-17 05:05 PM
Arrived: 15-Jun-17 05:51 PM
Distance/Time
Traveled:
76nm/0:46
Distance/Time
To Go:
Arrived

Flight Plot

Page will automatically refresh every two minutes.


Map Options




Map Legend


Flown Route
Filed Route
Departure Airport
Arrival Airport
Navaid (VOR, NDB)
Fix

Horizontal Profiles

Position Reports

Time Latitude Longitude Heading Altitude Ground
Speed
15-Jun-17 17:06 34.900001 -120.454516 314 515ft 71kts
15-Jun-17 17:07 34.915995 -120.460241 50 1285ft 90kts
15-Jun-17 17:08 34.934207 -120.429763 47 1269ft 127kts
15-Jun-17 17:09 34.950882 -120.394564 56 1685ft 88kts
15-Jun-17 17:10 34.961562 -120.368860 66 2529ft 82kts
15-Jun-17 17:12 34.967817 -120.342934 66 3255ft 75kts
15-Jun-17 17:13 34.976123 -120.316551 71 4164ft 101kts
15-Jun-17 17:14 34.980214 -120.285032 85 4675ft 82kts
15-Jun-17 17:15 34.982159 -120.258225 92 5250ft 76kts
15-Jun-17 17:16 34.984144 -120.231925 92 5733ft 80kts
15-Jun-17 17:17 34.988936 -120.204552 72 6188ft 87kts
15-Jun-17 17:18 34.999505 -120.177004 68 6610ft 91kts
15-Jun-17 17:19 35.010542 -120.148983 68 7017ft 92kts
15-Jun-17 17:20 35.021581 -120.120955 68 7424ft 89kts
15-Jun-17 17:21 35.033498 -120.090613 67 7513ft 110kts
15-Jun-17 17:22 35.047238 -120.055700 67 7493ft 115kts
15-Jun-17 17:23 35.061108 -120.020372 67 7492ft 115kts
15-Jun-17 17:24 35.075035 -119.984797 62 7491ft 116kts
15-Jun-17 17:25 35.089061 -119.949042 61 7492ft 116kts
15-Jun-17 17:26 35.102987 -119.913450 61 7494ft 116kts
15-Jun-17 17:27 35.116913 -119.877816 61 7494ft 116kts
15-Jun-17 17:28 35.130414 -119.842037 59 7495ft 115kts
15-Jun-17 17:29 35.144691 -119.806546 61 7488ft 116kts
15-Jun-17 17:30 35.163092 -119.776951 61 7502ft 114kts
15-Jun-17 17:31 35.175871 -119.740822 63 7478ft 116kts
15-Jun-17 17:32 35.189051 -119.704657 63 7478ft 116kts
15-Jun-17 17:33 35.202264 -119.668733 63 7480ft 116kts
15-Jun-17 17:34 35.215864 -119.632491 63 7375ft 124kts
15-Jun-17 17:35 35.231789 -119.591490 63 6816ft 138kts
15-Jun-17 17:36 35.250138 -119.546496 57 6237ft 147kts
15-Jun-17 17:37 35.268825 -119.506737 55 5544ft 120kts
15-Jun-17 17:38 35.277224 -119.467885 66 4861ft 118kts
15-Jun-17 17:39 35.290278 -119.431064 60 4219ft 114kts
15-Jun-17 17:40 35.302884 -119.398193 59 4218ft 110kts
15-Jun-17 17:41 35.315635 -119.364981 58 4214ft 103kts
15-Jun-17 17:42 35.327848 -119.333229 58 4226ft 103kts
15-Jun-17 17:43 35.341023 -119.299043 58 3971ft 122kts
15-Jun-17 17:44 35.355296 -119.261622 58 3243ft 109kts
15-Jun-17 17:45 35.368281 -119.227817 58 2447ft 111kts
15-Jun-17 17:46 35.381894 -119.192548 59 1619ft 113kts
15-Jun-17 17:47 35.392178 -119.159788 77 1359ft 101kts
15-Jun-17 17:48 35.394561 -119.128559 79 1366ft 93kts
15-Jun-17 17:49 35.396725 -119.092519 107 1717ft 118kts
15-Jun-17 17:50 35.398897 -119.056107 44 1532ft 107kts
15-Jun-17 17:51 35.416494 -119.034076 37 965ft 86kts
15-Jun-17 17:52 35.421092 -119.035769 285 730ft 58kts
15-Jun-17 17:53 35.429705 -119.051191 314 579ft 56kts
15-Jun-17 17:54 35.438214 -119.061473 315 510ft 32kts
15-Jun-17 17:55 35.440650 -119.063283 21 510ft 0kts
15-Jun-17 17:56 35.440651 -119.063283 21 510ft 0kts
15-Jun-17 17:57 35.440651 -119.063283 21 510ft 0kts
15-Jun-17 17:58 35.441337 -119.062700 140 510ft 0kts
15-Jun-17 17:59 35.440031 -119.061170 136 510ft 3kts
15-Jun-17 18:00 35.437869 -119.058585 135 510ft 30kts
15-Jun-17 18:01 35.432667 -119.052356 136 510ft 13kts
15-Jun-17 18:02 35.429382 -119.048440 135 510ft 36kts
15-Jun-17 18:03 35.426500 -119.042940 155 510ft 0kts
15-Jun-17 18:04 35.426500 -119.042940 155 510ft 0kts
15-Jun-17 18:05 35.426500 -119.042940 155 510ft 0kts
15-Jun-17 18:06 35.426500 -119.042940 155 510ft 0kts
15-Jun-17 18:07 35.426500 -119.042940 155 510ft 0kts
15-Jun-17 18:08 35.426500 -119.042940 155 510ft 0kts

Navigation Log

Ident Type
1. KSMX Airport
2. KBFL Airport